createdAt,value
2022-12-26T00:00:30.358Z,100230.38
2022-12-26T00:02:57.284Z,100234.47
2022-12-26T00:05:24.155Z,100234.41
2022-12-26T00:07:51.175Z,100231.28
2022-12-26T00:10:18.030Z,100241.75
2022-12-26T00:12:44.901Z,100220.78
2022-12-26T00:15:11.736Z,100239.91
2022-12-26T00:17:38.512Z,100221.31
2022-12-26T00:20:05.990Z,100214.19
2022-12-26T00:22:32.848Z,100212.47
2022-12-26T00:24:59.621Z,100242.78
2022-12-26T00:27:26.404Z,100240.84
2022-12-26T00:29:53.170Z,100243.88
2022-12-26T00:32:20.166Z,100249.41
2022-12-26T00:34:47.116Z,100253.25
2022-12-26T00:37:13.858Z,100257.59
2022-12-26T00:39:40.795Z,100251.81
2022-12-26T00:42:07.594Z,100239.13
2022-12-26T00:44:34.332Z,100232.00
2022-12-26T00:47:01.170Z,100229.34
2022-12-26T00:49:28.045Z,100229.34
2022-12-26T00:51:54.802Z,100229.34
2022-12-26T00:54:21.615Z,100242.25
2022-12-26T00:56:48.376Z,100249.03
2022-12-26T00:59:15.313Z,100259.56
2022-12-26T01:01:42.374Z,100265.88
2022-12-26T01:04:09.910Z,100277.41
2022-12-26T01:06:36.716Z,100271.22
2022-12-26T01:09:03.834Z,100277.25
2022-12-26T01:11:42.579Z,100276.47
2022-12-26T01:14:12.932Z,100272.47
2022-12-26T01:16:40.805Z,100274.38
2022-12-26T01:19:07.956Z,100274.31
2022-12-26T01:21:34.834Z,100275.69
2022-12-26T01:24:01.784Z,100272.66
2022-12-26T01:26:28.568Z,100261.97
2022-12-26T01:28:55.379Z,100253.25
2022-12-26T01:31:23.234Z,100255.47
2022-12-26T01:33:51.340Z,100273.22
2022-12-26T01:36:19.012Z,100279.66
2022-12-26T01:38:46.594Z,100277.66
2022-12-26T01:41:17.218Z,100290.97
2022-12-26T01:44:26.788Z,100270.06
2022-12-26T01:46:53.644Z,100269.72
2022-12-26T01:49:34.170Z,100255.25
2022-12-26T01:52:09.681Z,100236.53
2022-12-26T01:54:42.735Z,100229.56
2022-12-26T01:57:24.180Z,100258.50
2022-12-26T01:59:52.577Z,100254.75
2022-12-26T02:02:22.341Z,100250.81
2022-12-26T02:05:10.647Z,100253.41
2022-12-26T02:07:40.591Z,100256.09
2022-12-26T02:10:11.277Z,100257.38
2022-12-26T02:12:39.356Z,100242.47
2022-12-26T02:15:27.283Z,100258.28
2022-12-26T02:17:54.137Z,100253.91
2022-12-26T02:20:27.507Z,100253.44
2022-12-26T02:23:08.514Z,100252.75
2022-12-26T02:26:12.307Z,100260.69
2022-12-26T02:29:39.203Z,100259.03
2022-12-26T02:32:17.548Z,100247.03
2022-12-26T02:35:03.105Z,100239.84
2022-12-26T02:37:36.258Z,100247.72
2022-12-26T02:40:33.008Z,100255.44
2022-12-26T02:43:10.417Z,100265.19
2022-12-26T02:46:20.706Z,100249.22
2022-12-26T02:49:05.995Z,100241.63
2022-12-26T02:52:10.185Z,100251.97
2022-12-26T02:55:25.121Z,100253.94
2022-12-26T02:58:25.593Z,100257.59
2022-12-26T03:01:17.537Z,100258.06
2022-12-26T03:04:22.576Z,100251.56
2022-12-26T03:07:16.597Z,100253.88
2022-12-26T03:10:05.098Z,100245.13
2022-12-26T03:13:02.198Z,100240.47
2022-12-26T03:15:51.587Z,100252.53
2022-12-26T03:18:19.511Z,100256.72
2022-12-26T03:21:07.739Z,100265.66
2022-12-26T03:23:36.724Z,100260.81
2022-12-26T03:26:29.813Z,100263.22
2022-12-26T03:29:18.990Z,100268.97
2022-12-26T03:31:46.256Z,100272.06
2022-12-26T03:34:18.820Z,100276.09
2022-12-26T03:37:09.547Z,100275.63
2022-12-26T03:40:19.290Z,100285.97
2022-12-26T03:43:22.532Z,100288.75
2022-12-26T03:46:26.647Z,100288.56
2022-12-26T03:49:41.186Z,100277.00
2022-12-26T03:52:45.462Z,100291.03
2022-12-26T03:55:41.380Z,100286.66
2022-12-26T03:58:30.836Z,100269.44
2022-12-26T04:01:18.367Z,100283.78
2022-12-26T04:04:05.019Z,100300.94
2022-12-26T04:07:00.161Z,100301.03
2022-12-26T04:10:08.857Z,100306.44
2022-12-26T04:12:57.203Z,100304.47
2022-12-26T04:16:02.635Z,100301.25
2022-12-26T04:19:31.424Z,100301.75
2022-12-26T04:22:30.688Z,100302.97
2022-12-26T04:25:50.252Z,100302.81
2022-12-26T04:28:37.767Z,100301.75
2022-12-26T04:31:49.365Z,100291.81
2022-12-26T04:35:05.305Z,100286.97
2022-12-26T04:37:53.087Z,100292.09
2022-12-26T04:40:45.525Z,100300.72
2022-12-26T04:43:48.926Z,100290.91
2022-12-26T04:46:20.720Z,100290.91
2022-12-26T04:49:09.204Z,100289.31
2022-12-26T04:51:36.491Z,100282.97
2022-12-26T04:54:03.807Z,100279.41
2022-12-26T04:56:30.827Z,100290.19
2022-12-26T04:58:57.653Z,100290.38
2022-12-26T05:01:43.005Z,100292.47
2022-12-26T05:04:33.253Z,100289.38
2022-12-26T05:07:20.675Z,100294.06
2022-12-26T05:09:51.944Z,100294.31
2022-12-26T05:12:19.272Z,100293.09
2022-12-26T05:14:46.289Z,100286.59
2022-12-26T05:17:32.851Z,100297.94
2022-12-26T05:20:18.099Z,100296.16
2022-12-26T05:23:05.134Z,100288.09
2022-12-26T05:25:53.575Z,100294.06
2022-12-26T05:28:39.313Z,100290.97
2022-12-26T05:31:06.961Z,100296.16
2022-12-26T05:33:52.263Z,100289.63
2022-12-26T05:36:21.869Z,100285.06
2022-12-26T05:38:49.194Z,100286.69
2022-12-26T05:41:17.137Z,100286.22
2022-12-26T05:43:44.708Z,100293.00
2022-12-26T05:46:11.481Z,100299.00
2022-12-26T05:48:38.326Z,100300.94
2022-12-26T05:51:05.680Z,100308.34
2022-12-26T05:53:33.123Z,100314.50
2022-12-26T05:56:08.264Z,100312.34
2022-12-26T05:58:35.171Z,100314.50
2022-12-26T06:01:08.526Z,100314.94
2022-12-26T06:03:35.882Z,100316.72
2022-12-26T06:06:02.926Z,100313.22
2022-12-26T06:08:29.971Z,100311.78
2022-12-26T06:10:56.754Z,100312.28
2022-12-26T06:13:23.695Z,100313.44
2022-12-26T06:15:50.516Z,100316.19
2022-12-26T06:18:17.501Z,100305.56
2022-12-26T06:20:44.996Z,100309.78
2022-12-26T06:23:11.865Z,100311.03
2022-12-26T06:25:38.710Z,100304.09
2022-12-26T06:28:05.575Z,100302.75
2022-12-26T06:30:32.385Z,100308.84
2022-12-26T06:33:00.005Z,100302.50
2022-12-26T06:35:26.997Z,100296.44
2022-12-26T06:37:53.779Z,100294.47
2022-12-26T06:40:20.637Z,100291.72
2022-12-26T06:42:47.441Z,100304.19
2022-12-26T06:45:14.406Z,100304.81
2022-12-26T06:47:41.259Z,100299.66
2022-12-26T06:50:08.374Z,100308.69
2022-12-26T06:52:37.463Z,100309.38
2022-12-26T06:55:04.976Z,100311.94
2022-12-26T06:57:31.897Z,100308.03
2022-12-26T06:59:58.692Z,100320.97
2022-12-26T07:02:25.482Z,100323.19
2022-12-26T07:04:52.321Z,100327.22
2022-12-26T07:07:19.056Z,100335.78
2022-12-26T07:09:45.912Z,100337.41
2022-12-26T07:12:12.702Z,100334.81
2022-12-26T07:14:39.516Z,100326.09
2022-12-26T07:17:06.303Z,100327.34
2022-12-26T07:19:33.167Z,100327.94
2022-12-26T07:21:59.993Z,100333.59
2022-12-26T07:24:26.731Z,100333.03
2022-12-26T07:26:53.560Z,100333.34
2022-12-26T07:29:22.004Z,100345.94
2022-12-26T07:31:49.296Z,100354.75
2022-12-26T07:34:16.341Z,100355.84
2022-12-26T07:36:43.294Z,100350.16
2022-12-26T07:39:12.395Z,100359.78
2022-12-26T07:41:57.621Z,100365.41
2022-12-26T07:44:26.094Z,100373.81
2022-12-26T07:46:53.069Z,100365.06
2022-12-26T07:49:19.911Z,100368.63
2022-12-26T07:51:46.769Z,100373.81
2022-12-26T07:54:14.687Z,100379.34
2022-12-26T07:56:42.098Z,100377.03
2022-12-26T07:59:15.520Z,100380.97
2022-12-26T08:01:42.924Z,100381.06
2022-12-26T08:04:11.122Z,100384.06
2022-12-26T08:06:38.893Z,100387.13
2022-12-26T08:09:06.149Z,100388.38
2022-12-26T08:11:35.483Z,100399.69
2022-12-26T08:14:02.885Z,100406.13
2022-12-26T08:16:31.540Z,100402.22
2022-12-26T08:18:58.412Z,100403.78
2022-12-26T08:21:25.274Z,100401.88
2022-12-26T08:23:52.149Z,100402.22
2022-12-26T08:26:22.777Z,100403.78
2022-12-26T08:28:51.295Z,100412.75
2022-12-26T08:31:19.646Z,100400.63
2022-12-26T08:33:46.554Z,100408.81
2022-12-26T08:36:17.010Z,100403.47
2022-12-26T08:38:45.492Z,100410.34
2022-12-26T08:41:12.360Z,100408.47
2022-12-26T08:44:25.253Z,100405.16
2022-12-26T08:46:25.886Z,100409.91
2022-12-26T08:48:52.835Z,100407.03
2022-12-26T08:51:22.545Z,100421.84
2022-12-26T08:53:50.518Z,100412.75
2022-12-26T08:56:21.814Z,100424.34
2022-12-26T08:58:49.797Z,100418.91
2022-12-26T09:01:19.918Z,100412.56
2022-12-26T09:03:47.433Z,100415.50
2022-12-26T09:06:15.647Z,100428.28
2022-12-26T09:08:43.274Z,100426.50
2022-12-26T09:11:15.908Z,100424.72
2022-12-26T09:13:43.584Z,100432.22
2022-12-26T09:16:17.853Z,100432.59
2022-12-26T09:18:46.221Z,100435.25
2022-12-26T09:21:15.556Z,100425.00
2022-12-26T09:23:43.431Z,100411.59
2022-12-26T09:26:14.171Z,100407.06
2022-12-26T09:28:41.440Z,100409.56
2022-12-26T09:31:13.885Z,100406.78
2022-12-26T09:33:40.909Z,100409.00
2022-12-26T09:36:14.484Z,100395.00
2022-12-26T09:38:46.093Z,100405.59
2022-12-26T09:41:48.528Z,100396.34
2022-12-26T09:44:27.657Z,100395.88
2022-12-26T09:47:24.967Z,100387.78
2022-12-26T09:50:01.005Z,100390.94
2022-12-26T09:52:50.690Z,100387.03
2022-12-26T09:55:36.139Z,100384.78
2022-12-26T09:58:14.941Z,100379.53
2022-12-26T10:00:51.842Z,100380.88
2022-12-26T10:03:18.769Z,100376.22
2022-12-26T10:06:07.229Z,100365.97
2022-12-26T10:09:12.523Z,100363.63
2022-12-26T10:12:24.479Z,100364.88
2022-12-26T10:15:03.571Z,100364.38
2022-12-26T10:17:36.825Z,100373.81
2022-12-26T10:20:16.677Z,100368.31
2022-12-26T10:23:03.509Z,100368.31
2022-12-26T10:25:45.846Z,100359.19
2022-12-26T10:28:46.192Z,100362.41
2022-12-26T10:31:27.810Z,100362.13
2022-12-26T10:33:58.577Z,100348.75
2022-12-26T10:36:44.156Z,100352.41
2022-12-26T10:39:41.529Z,100345.63
2022-12-26T10:42:17.231Z,100346.56
2022-12-26T10:44:44.412Z,100343.72
2022-12-26T10:47:23.759Z,100348.81
2022-12-26T10:49:50.607Z,100347.38
2022-12-26T10:52:21.369Z,100351.09
2022-12-26T10:55:29.683Z,100354.31
2022-12-26T10:57:44.240Z,100351.09
2022-12-26T11:00:37.705Z,100334.00
2022-12-26T11:03:13.727Z,100335.16
2022-12-26T11:06:08.175Z,100337.72
2022-12-26T11:08:51.902Z,100342.91
2022-12-26T11:11:23.765Z,100344.06
2022-12-26T11:14:02.332Z,100335.06
2022-12-26T11:16:40.033Z,100329.66
2022-12-26T11:19:07.026Z,100328.66
2022-12-26T11:21:34.444Z,100335.31
2022-12-26T11:24:21.668Z,100341.47
2022-12-26T11:26:48.840Z,100339.88
2022-12-26T11:29:21.442Z,100342.28
2022-12-26T11:31:59.443Z,100331.97
2022-12-26T11:34:47.732Z,100331.50
2022-12-26T11:37:37.119Z,100327.72
2022-12-26T11:40:05.019Z,100324.66
2022-12-26T11:42:32.122Z,100317.94
2022-12-26T11:45:12.325Z,100318.31
2022-12-26T11:47:46.249Z,100315.44
2022-12-26T11:50:21.164Z,100320.09
2022-12-26T11:52:56.577Z,100318.31
2022-12-26T11:55:29.712Z,100317.31
2022-12-26T11:58:21.811Z,100307.66
2022-12-26T12:00:51.859Z,100297.00
2022-12-26T12:03:48.645Z,100293.69
2022-12-26T12:06:44.190Z,100286.31
2022-12-26T12:09:42.117Z,100279.75
2022-12-26T12:12:42.692Z,100283.81
2022-12-26T12:15:31.465Z,100287.41
2022-12-26T12:18:33.322Z,100291.09
2022-12-26T12:21:36.644Z,100286.31
2022-12-26T12:24:32.585Z,100289.00
2022-12-26T12:27:13.511Z,100289.81
2022-12-26T12:29:49.343Z,100299.06
2022-12-26T12:32:29.248Z,100297.09
2022-12-26T12:35:01.606Z,100292.00
2022-12-26T12:37:53.394Z,100295.31
2022-12-26T12:40:42.391Z,100293.44
2022-12-26T12:43:23.090Z,100296.75
2022-12-26T12:45:49.818Z,100302.91
2022-12-26T12:48:45.808Z,100298.00
2022-12-26T12:51:37.313Z,100298.19
2022-12-26T12:54:39.446Z,100287.84
2022-12-26T12:57:36.955Z,100292.50
2022-12-26T13:00:24.135Z,100300.09
2022-12-26T13:03:12.880Z,100294.28
2022-12-26T13:06:01.060Z,100289.53
2022-12-26T13:08:51.665Z,100291.16
2022-12-26T13:11:38.231Z,100286.16
2022-12-26T13:14:11.727Z,100290.25
2022-12-26T13:16:43.741Z,100285.97
2022-12-26T13:19:26.331Z,100282.50
2022-12-26T13:21:57.744Z,100282.22
2022-12-26T13:24:35.983Z,100282.16
2022-12-26T13:27:24.217Z,100291.41
2022-12-26T13:29:52.503Z,100289.38
2022-12-26T13:32:33.379Z,100285.81
2022-12-26T13:35:02.199Z,100286.34
2022-12-26T13:37:36.331Z,100285.97
2022-12-26T13:40:10.906Z,100272.84
2022-12-26T13:43:04.339Z,100277.03
2022-12-26T13:45:58.169Z,100270.44
2022-12-26T13:48:30.436Z,100275.81
2022-12-26T13:51:00.396Z,100276.53
2022-12-26T13:53:37.208Z,100275.09
2022-12-26T13:56:45.878Z,100282.50
2022-12-26T13:59:30.604Z,100279.19
2022-12-26T14:03:15.992Z,100277.47
2022-12-26T14:05:57.982Z,100293.38
2022-12-26T14:08:36.778Z,100278.78
2022-12-26T14:11:28.312Z,100271.25
2022-12-26T14:14:48.253Z,100269.91
2022-12-26T14:17:57.898Z,100267.78
2022-12-26T14:20:49.656Z,100260.91
2022-12-26T14:23:28.402Z,100263.38
2022-12-26T14:26:05.186Z,100268.91
2022-12-26T14:29:08.045Z,100268.75
2022-12-26T14:31:40.951Z,100273.13
2022-12-26T14:34:49.854Z,100273.94
2022-12-26T14:37:28.625Z,100271.97
2022-12-26T14:40:06.137Z,100277.56
2022-12-26T14:43:11.082Z,100279.03
2022-12-26T14:45:38.448Z,100279.97
2022-12-26T14:48:17.440Z,100285.81
2022-12-26T14:50:47.279Z,100294.72
2022-12-26T14:53:28.825Z,100294.31
2022-12-26T14:56:19.256Z,100285.94
2022-12-26T14:58:50.462Z,100293.34
2022-12-26T15:01:18.097Z,100288.16
2022-12-26T15:04:12.123Z,100300.19
2022-12-26T15:07:04.363Z,100292.56
2022-12-26T15:10:08.395Z,100288.38
2022-12-26T15:13:09.111Z,100290.63
2022-12-26T15:16:08.311Z,100287.69
2022-12-26T15:18:59.448Z,100287.69
2022-12-26T15:21:56.505Z,100290.69
2022-12-26T15:25:17.662Z,100287.28
2022-12-26T15:27:36.196Z,100297.78
2022-12-26T15:30:39.802Z,100296.91
2022-12-26T15:33:22.134Z,100289.00
2022-12-26T15:36:13.518Z,100292.75
2022-12-26T15:39:05.233Z,100285.91
2022-12-26T15:41:43.962Z,100276.16
2022-12-26T15:44:48.534Z,100285.09
2022-12-26T15:47:43.167Z,100289.19
2022-12-26T15:50:31.300Z,100282.84
2022-12-26T15:53:21.055Z,100295.75
2022-12-26T15:56:22.126Z,100303.19
2022-12-26T15:58:51.922Z,100295.25
2022-12-26T16:01:39.048Z,100290.44
2022-12-26T16:04:28.839Z,100290.59
2022-12-26T16:07:51.919Z,100285.84
2022-12-26T16:10:32.417Z,100290.63
2022-12-26T16:13:11.651Z,100284.97
2022-12-26T16:15:48.910Z,100274.97
2022-12-26T16:18:36.180Z,100279.66
2022-12-26T16:21:25.680Z,100279.44
2022-12-26T16:23:54.125Z,100278.84
2022-12-26T16:26:34.017Z,100276.91
2022-12-26T16:29:01.583Z,100268.66
2022-12-26T16:31:31.419Z,100268.66
2022-12-26T16:33:59.853Z,100267.72
2022-12-26T16:36:35.749Z,100252.59
2022-12-26T16:39:08.316Z,100250.63
2022-12-26T16:41:45.678Z,100251.47
2022-12-26T16:44:35.936Z,100250.41
2022-12-26T16:47:06.503Z,100255.56
2022-12-26T16:49:34.857Z,100243.28
2022-12-26T16:52:01.900Z,100257.16
2022-12-26T16:54:37.443Z,100259.09
2022-12-26T16:57:19.676Z,100273.78
2022-12-26T16:59:57.137Z,100270.22
2022-12-26T17:02:35.312Z,100275.50
2022-12-26T17:05:21.896Z,100277.44
2022-12-26T17:07:50.862Z,100283.19
2022-12-26T17:10:21.826Z,100268.13
2022-12-26T17:12:49.179Z,100277.13
2022-12-26T17:15:30.695Z,100288.81
2022-12-26T17:18:21.783Z,100288.41
2022-12-26T17:20:48.537Z,100294.03
2022-12-26T17:23:34.640Z,100286.44
2022-12-26T17:26:21.726Z,100283.00
2022-12-26T17:28:48.657Z,100293.84
2022-12-26T17:31:40.763Z,100297.69
2022-12-26T17:34:31.434Z,100295.03
2022-12-26T17:37:20.269Z,100289.13
2022-12-26T17:40:02.750Z,100285.50
2022-12-26T17:42:38.591Z,100285.81
2022-12-26T17:45:05.825Z,100285.06
2022-12-26T17:47:32.732Z,100295.34
2022-12-26T17:49:59.641Z,100295.66
2022-12-26T17:52:31.432Z,100293.66
2022-12-26T17:54:59.798Z,100291.69
2022-12-26T17:57:29.143Z,100295.72
2022-12-26T17:59:57.317Z,100289.38
2022-12-26T18:02:24.525Z,100288.22
2022-12-26T18:04:51.687Z,100282.22
2022-12-26T18:07:31.095Z,100280.63
2022-12-26T18:10:02.025Z,100278.66
2022-12-26T18:12:30.292Z,100270.72
2022-12-26T18:15:01.715Z,100285.28
2022-12-26T18:17:33.510Z,100277.84
2022-12-26T18:20:05.957Z,100279.91
2022-12-26T18:22:32.702Z,100278.75
2022-12-26T18:24:59.853Z,100285.97
2022-12-26T18:27:35.007Z,100288.91
2022-12-26T18:30:02.109Z,100275.63
2022-12-26T18:32:33.557Z,100272.22
2022-12-26T18:35:00.862Z,100274.34
2022-12-26T18:37:29.613Z,100283.47
2022-12-26T18:39:56.749Z,100292.22
2022-12-26T18:42:23.981Z,100283.47
2022-12-26T18:44:50.736Z,100285.28
2022-12-26T18:47:20.544Z,100279.47
2022-12-26T18:49:47.841Z,100289.63
2022-12-26T18:52:17.942Z,100274.34
2022-12-26T18:54:45.211Z,100274.34
2022-12-26T18:57:18.918Z,100269.16
2022-12-26T18:59:48.691Z,100275.00
2022-12-26T19:02:19.552Z,100286.69
2022-12-26T19:04:48.613Z,100284.53
2022-12-26T19:07:17.284Z,100280.00
2022-12-26T19:09:46.985Z,100287.59
2022-12-26T19:12:15.498Z,100273.03
2022-12-26T19:14:44.181Z,100274.72
2022-12-26T19:17:11.185Z,100283.41
2022-12-26T19:19:37.954Z,100293.28
2022-12-26T19:22:04.882Z,100279.72
2022-12-26T19:24:31.724Z,100276.50
2022-12-26T19:26:58.603Z,100262.16
2022-12-26T19:29:25.373Z,100283.38
2022-12-26T19:31:52.332Z,100268.03
2022-12-26T19:34:19.220Z,100272.75
2022-12-26T19:36:46.124Z,100267.75
2022-12-26T19:39:12.943Z,100267.94
2022-12-26T19:41:39.892Z,100273.13
2022-12-26T19:44:06.752Z,100272.31
2022-12-26T19:46:34.521Z,100269.84
2022-12-26T19:49:03.645Z,100267.84
2022-12-26T19:51:30.838Z,100283.03
2022-12-26T19:53:57.886Z,100272.69
2022-12-26T19:56:27.471Z,100274.63
2022-12-26T19:58:56.770Z,100270.09
2022-12-26T20:01:26.743Z,100282.41
2022-12-26T20:03:58.751Z,100294.72
2022-12-26T20:06:28.043Z,100288.72
2022-12-26T20:09:01.136Z,100282.16
2022-12-26T20:11:33.720Z,100277.31
2022-12-26T20:14:01.999Z,100268.13
2022-12-26T20:17:03.714Z,100286.78
2022-12-26T20:19:17.177Z,100289.69
2022-12-26T20:21:44.040Z,100292.09
2022-12-26T20:24:11.489Z,100284.34
2022-12-26T20:26:38.937Z,100287.75
2022-12-26T20:29:05.763Z,100283.72
2022-12-26T20:31:33.778Z,100282.91
2022-12-26T20:34:01.001Z,100290.84
2022-12-26T20:36:32.515Z,100287.50
2022-12-26T20:39:01.481Z,100287.09
2022-12-26T20:41:29.592Z,100263.81
2022-12-26T20:43:57.011Z,100240.47
2022-12-26T20:46:27.742Z,100237.72
2022-12-26T20:48:55.210Z,100251.94
2022-12-26T20:51:31.708Z,100259.06
2022-12-26T20:54:03.928Z,100261.66
2022-12-26T20:56:30.795Z,100321.66
2022-12-26T20:58:59.622Z,100331.47
2022-12-26T21:01:27.877Z,100325.09
2022-12-26T21:03:55.994Z,100323.63
2022-12-26T21:06:30.183Z,100309.34
2022-12-26T21:08:57.863Z,100303.50
2022-12-26T21:11:37.989Z,100313.84
2022-12-26T21:14:07.944Z,100307.22
2022-12-26T21:16:44.516Z,100320.44
2022-12-26T21:19:15.324Z,100311.97
2022-12-26T21:21:45.323Z,100297.31
2022-12-26T21:24:15.861Z,100308.13
2022-12-26T21:26:43.640Z,100311.69
2022-12-26T21:29:14.146Z,100320.44
2022-12-26T21:31:41.104Z,100317.22
2022-12-26T21:34:08.964Z,100325.63
2022-12-26T21:36:36.113Z,100299.72
2022-12-26T21:39:08.086Z,100306.88
2022-12-26T21:41:35.416Z,100285.63
2022-12-26T21:44:02.338Z,100284.69
2022-12-26T21:46:29.200Z,100281.25
2022-12-26T21:48:56.031Z,100276.78
2022-12-26T21:51:27.103Z,100276.69
2022-12-26T21:54:13.818Z,100280.56
2022-12-26T21:56:40.570Z,100282.03
2022-12-26T21:59:27.187Z,100290.50
2022-12-26T22:01:54.147Z,100292.41
2022-12-26T22:04:20.915Z,100285.50
2022-12-26T22:06:49.586Z,100292.53
2022-12-26T22:09:17.389Z,100309.13
2022-12-26T22:12:04.238Z,100304.13
2022-12-26T22:14:31.307Z,100310.78
2022-12-26T22:16:58.470Z,100318.41
2022-12-26T22:19:26.268Z,100309.63
2022-12-26T22:21:54.561Z,100308.66
2022-12-26T22:24:21.949Z,100299.69
2022-12-26T22:26:49.221Z,100289.31
2022-12-26T22:29:16.135Z,100286.13
2022-12-26T22:31:43.066Z,100278.94
2022-12-26T22:34:14.920Z,100271.72
2022-12-26T22:36:42.873Z,100270.56
2022-12-26T22:39:13.791Z,100295.88
2022-12-26T22:41:40.979Z,100303.28
2022-12-26T22:44:12.331Z,100311.25
2022-12-26T22:46:39.320Z,100322.41
2022-12-26T22:49:06.191Z,100319.81
2022-12-26T22:51:33.235Z,100326.78
2022-12-26T22:54:01.806Z,100331.78
2022-12-26T22:56:29.663Z,100334.38
2022-12-26T22:59:00.567Z,100324.03
2022-12-26T23:01:27.818Z,100328.22
2022-12-26T23:03:54.937Z,100322.03
2022-12-26T23:06:27.140Z,100323.72
2022-12-26T23:08:57.010Z,100320.16
2022-12-26T23:11:30.330Z,100322.41
2022-12-26T23:14:01.362Z,100323.72
2022-12-26T23:16:52.548Z,100331.03
2022-12-26T23:19:55.483Z,100345.47
2022-12-26T23:22:22.466Z,100327.53
2022-12-26T23:24:49.270Z,100330.31
2022-12-26T23:27:34.731Z,100314.31
2022-12-26T23:30:19.665Z,100317.44
2022-12-26T23:32:52.568Z,100312.00
2022-12-26T23:35:21.641Z,100304.59
2022-12-26T23:37:48.551Z,100299.41
2022-12-26T23:40:17.475Z,100306.38
2022-12-26T23:42:44.543Z,100295.66
2022-12-26T23:45:13.427Z,100300.59
2022-12-26T23:47:42.418Z,100297.78
2022-12-26T23:50:11.670Z,100303.34
2022-12-26T23:52:38.841Z,100298.97
2022-12-26T23:55:06.702Z,100299.78
2022-12-26T23:57:33.799Z,100298.97
